Time;durP1;ratioP1;P1;durP2;ratioP2;P2;SDS_P1;SDS_P2;PMS_P1;PMS_P2;Temp;Humidity;BMP_temperature;BMP_pressure;BME280_temperature;BME280_humidity;BME280_pressure;Samples;Min_cycle;Max_cycle;Signal;HPM_P1;HPM_P2
2022/08/24 00:00:22;;;;;;;2.38;1.70;;;;;;;20.34;49.02;98950.63;5071553;28;20052;-68
2022/08/24 00:02:48;;;;;;;2.30;2.10;;;;;;;20.26;48.90;98949.22;5071441;28;20045;-68
2022/08/24 00:05:20;;;;;;;2.10;2.00;;;;;;;20.19;49.21;98951.28;5072767;28;20041;-68
2022/08/24 00:07:48;;;;;;;2.60;2.40;;;;;;;20.13;49.26;98953.09;5071206;28;20106;-69
2022/08/24 00:10:16;;;;;;;2.45;2.25;;;;;;;20.09;49.29;98949.28;5072881;28;20063;-68
2022/08/24 00:12:42;;;;;;;2.90;2.47;;;;;;;20.06;49.42;98948.97;5072647;28;20048;-68
2022/08/24 00:15:12;;;;;;;1.80;1.70;;;;;;;20.06;49.99;98948.97;5071090;28;20071;-68
2022/08/24 00:17:39;;;;;;;1.77;1.67;;;;;;;20.07;49.60;98948.72;5070537;28;20048;-68
2022/08/24 00:20:08;;;;;;;2.20;2.10;;;;;;;20.04;49.43;98947.38;5072751;28;20403;-68
2022/08/24 00:22:34;;;;;;;3.13;2.42;;;;;;;19.98;49.74;98943.00;5072487;28;20036;-68
2022/08/24 00:25:02;;;;;;;2.95;2.75;;;;;;;19.93;49.50;98947.50;5071340;28;20041;-68
2022/08/24 00:27:29;;;;;;;2.83;2.60;;;;;;;19.85;49.90;98946.06;5072138;28;20040;-69
2022/08/24 00:29:56;;;;;;;3.15;2.83;;;;;;;19.77;49.61;98946.47;5070819;28;20055;-68
2022/08/24 00:32:23;;;;;;;2.78;2.58;;;;;;;19.70;49.98;98945.84;5072461;28;20036;-68
2022/08/24 00:34:49;;;;;;;3.25;2.88;;;;;;;19.65;50.09;98949.28;5072301;28;20575;-68
2022/08/24 00:37:27;;;;;;;2.13;1.92;;;;;;;19.64;50.39;98953.03;5055782;28;20087;-68
2022/08/24 00:39:54;;;;;;;3.28;2.97;;;;;;;19.63;49.96;98961.31;5070911;28;20114;-68
2022/08/24 00:42:21;;;;;;;2.88;2.67;;;;;;;19.58;50.23;98959.34;5070949;28;20044;-68
2022/08/24 00:44:48;;;;;;;2.70;2.50;;;;;;;19.50;50.18;98957.88;5071162;28;20045;-69
2022/08/24 00:47:30;;;;;;;2.83;2.63;;;;;;;19.44;50.66;98963.44;5053865;28;20044;-68
2022/08/24 00:50:03;;;;;;;2.28;2.08;;;;;;;19.41;50.24;98961.25;5072415;28;20056;-68
2022/08/24 00:52:39;;;;;;;2.60;2.20;;;;;;;19.41;50.07;98966.59;5071134;28;20044;-69
2022/08/24 00:55:10;;;;;;;2.00;1.77;;;;;;;19.42;50.14;98960.19;5072392;28;20054;-69
2022/08/24 00:57:40;;;;;;;2.00;1.90;;;;;;;19.41;50.07;98956.69;5070822;28;20053;-68
2022/08/24 01:00:17;;;;;;;2.35;2.15;;;;;;;19.39;50.11;98960.66;5071009;28;20074;-68
2022/08/24 01:02:47;;;;;;;1.98;1.80;;;;;;;19.36;50.24;98961.19;5070808;28;20040;-68
2022/08/24 01:05:17;;;;;;;2.42;2.22;;;;;;;19.35;50.55;98955.00;5070805;28;20084;-68
2022/08/24 01:07:48;;;;;;;2.38;2.20;;;;;;;19.32;50.47;98960.03;5071872;28;20090;-68
2022/08/24 01:10:18;;;;;;;2.17;1.98;;;;;;;19.28;50.92;98960.53;5072237;28;20048;-68
2022/08/24 01:12:49;;;;;;;2.13;1.92;;;;;;;19.25;51.12;98963.69;5072094;28;20043;-68
2022/08/24 01:15:32;;;;;;;1.65;1.50;;;;;;;19.24;51.05;98959.38;5072007;28;20121;-68
2022/08/24 01:20:50;;;;;;;2.35;2.15;;;;;;;19.21;51.00;98956.38;5071022;28;20504;-68
2022/08/24 01:23:39;;;;;;;1.90;1.80;;;;;;;19.16;50.96;98957.13;5070645;28;20049;-68
2022/08/24 01:26:11;;;;;;;1.88;1.77;;;;;;;19.09;51.59;98958.34;5070271;28;20048;-68
2022/08/24 01:28:41;;;;;;;1.40;1.30;;;;;;;19.04;51.70;98953.72;5070998;28;20044;-68
2022/08/24 01:31:08;;;;;;;1.92;1.73;;;;;;;18.98;51.85;98952.00;5070961;28;20051;-68
2022/08/24 01:33:35;;;;;;;1.75;1.65;;;;;;;18.98;51.74;98957.34;5070840;28;20041;-68
2022/08/24 01:36:13;;;;;;;2.40;2.20;;;;;;;18.96;51.60;98965.66;5072016;28;20048;-68
2022/08/24 01:38:41;;;;;;;2.00;1.90;;;;;;;18.95;51.75;98961.34;5073008;28;20071;-69
2022/08/24 01:41:07;;;;;;;2.28;2.13;;;;;;;18.94;51.27;98964.25;5073372;28;20041;-68
2022/08/24 01:43:37;;;;;;;2.03;1.92;;;;;;;18.90;51.85;98965.78;5074180;28;20044;-68
2022/08/24 01:46:06;;;;;;;1.50;1.40;;;;;;;18.88;52.24;98967.91;5073721;28;20044;-68
2022/08/24 01:48:33;;;;;;;2.25;2.05;;;;;;;18.84;52.25;98975.63;5075192;28;20048;-68
2022/08/24 01:50:59;;;;;;;1.52;1.42;;;;;;;18.86;52.62;98973.53;5073980;28;20044;-68
2022/08/24 01:53:26;;;;;;;2.28;1.92;;;;;;;18.87;52.32;98963.63;5074092;28;20472;-68
2022/08/24 01:55:53;;;;;;;2.50;1.88;;;;;;;18.81;52.83;98979.59;5073857;28;20044;-68
2022/08/24 01:58:20;;;;;;;1.50;1.40;;;;;;;18.78;53.08;98973.94;5073585;28;20055;-68
2022/08/24 02:00:47;;;;;;;1.60;1.42;;;;;;;18.80;53.04;98977.97;5073879;28;20048;-69
2022/08/24 02:03:13;;;;;;;2.05;1.85;;;;;;;18.79;53.10;98979.03;5073757;28;20045;-68
2022/08/24 02:05:44;;;;;;;1.80;1.70;;;;;;;18.76;52.86;98973.34;5073692;28;20045;-69
2022/08/24 02:08:13;;;;;;;1.92;1.67;;;;;;;18.74;53.35;98980.81;5073549;28;20053;-69
2022/08/24 02:10:40;;;;;;;2.00;1.90;;;;;;;18.70;52.95;98979.66;5073593;28;20044;-69
2022/08/24 02:13:14;;;;;;;1.77;1.67;;;;;;;18.65;53.50;98987.56;5073817;28;20040;-69
2022/08/24 02:15:41;;;;;;;1.90;1.80;;;;;;;18.64;53.59;98985.94;5069236;28;20057;-69
2022/08/24 02:18:10;;;;;;;3.50;3.00;;;;;;;18.62;53.28;98991.56;5061603;28;20044;-68
2022/08/24 02:20:42;;;;;;;3.13;2.83;;;;;;;18.55;53.46;98986.34;5053769;28;20041;-68
2022/08/24 02:23:08;;;;;;;3.05;2.70;;;;;;;18.49;53.21;98997.16;5070321;28;20051;-68
2022/08/24 02:25:35;;;;;;;3.95;3.30;;;;;;;18.42;53.33;98999.19;5053417;28;20045;-68
2022/08/24 02:28:02;;;;;;;3.25;3.03;;;;;;;18.34;53.50;99002.25;5054497;28;20045;-69
2022/08/24 02:30:30;;;;;;;3.65;3.05;;;;;;;18.28;53.61;99006.69;5054824;28;20051;-68
2022/08/24 02:32:57;;;;;;;3.30;2.90;;;;;;;18.28;53.63;99004.00;5053150;28;20045;-68
2022/08/24 02:35:26;;;;;;;2.90;2.70;;;;;;;18.31;53.94;99006.22;5037042;28;20048;-68
2022/08/24 02:37:52;;;;;;;2.60;2.40;;;;;;;18.33;53.77;99006.81;5052787;28;20098;-68
2022/08/24 02:40:20;;;;;;;2.53;2.33;;;;;;;18.36;53.44;99008.16;5036608;28;20055;-69
2022/08/24 02:42:48;;;;;;;2.83;2.55;;;;;;;18.38;53.85;99006.88;5069628;28;20041;-68
2022/08/24 02:45:15;;;;;;;2.88;2.67;;;;;;;18.38;53.57;99004.22;5072924;28;20040;-68
2022/08/24 02:47:44;;;;;;;2.58;2.30;;;;;;;18.41;53.62;99002.91;5072524;28;20385;-68
2022/08/24 02:50:13;;;;;;;1.67;1.55;;;;;;;18.44;53.58;99000.56;5072969;28;20507;-68
2022/08/24 02:52:40;;;;;;;1.75;1.65;;;;;;;18.47;53.55;99008.13;5055962;28;20067;-68
2022/08/24 02:55:10;;;;;;;1.50;1.40;;;;;;;18.50;53.63;99004.97;5072989;28;20075;-68
2022/08/24 02:57:37;;;;;;;1.58;1.48;;;;;;;18.51;53.36;99006.59;5072573;28;20569;-69
2022/08/24 03:00:09;;;;;;;2.13;1.92;;;;;;;18.54;53.37;98994.63;5072807;28;20520;-68
2022/08/24 03:02:40;;;;;;;2.60;2.40;;;;;;;18.52;53.12;98994.84;5072735;28;20045;-68
2022/08/24 03:05:08;;;;;;;2.17;1.98;;;;;;;18.52;53.11;98996.69;5072804;28;20056;-68
2022/08/24 03:07:36;;;;;;;2.40;2.20;;;;;;;18.50;52.96;98990.78;5072223;28;20055;-68
2022/08/24 03:10:05;;;;;;;2.70;2.50;;;;;;;18.46;52.98;99003.84;5072624;28;20055;-68
2022/08/24 03:12:33;;;;;;;3.35;2.67;;;;;;;18.41;53.39;99001.06;5072420;28;20051;-68
2022/08/24 03:15:01;;;;;;;3.65;3.35;;;;;;;18.34;53.57;99003.06;5072350;28;20075;-68
2022/08/24 03:17:30;;;;;;;3.60;3.05;;;;;;;18.25;53.59;98991.94;5071749;28;20463;-68
2022/08/24 03:19:57;;;;;;;2.95;2.70;;;;;;;18.16;53.34;98996.00;5072336;28;20496;-68
2022/08/24 03:22:25;;;;;;;2.58;2.38;;;;;;;18.06;54.23;98990.47;5072180;28;20051;-68
2022/08/24 03:24:52;;;;;;;3.65;3.17;;;;;;;18.00;53.77;99004.75;5072352;28;20071;-68
2022/08/24 03:27:19;;;;;;;3.03;2.72;;;;;;;17.94;54.27;99000.38;5071973;28;20072;-68
2022/08/24 03:29:45;;;;;;;2.80;2.60;;;;;;;17.90;54.17;98999.22;5055703;28;20052;-68
2022/08/24 03:32:15;;;;;;;3.08;2.78;;;;;;;17.86;54.17;98993.53;5071941;28;20050;-69
2022/08/24 03:34:42;;;;;;;3.38;3.08;;;;;;;17.81;54.33;98988.88;5072080;28;20527;-68
2022/08/24 03:37:09;;;;;;;3.22;2.92;;;;;;;17.78;54.36;98986.66;5073061;28;20045;-69
2022/08/24 03:39:35;;;;;;;2.67;2.47;;;;;;;17.79;54.71;98984.81;5073125;28;20072;-68
2022/08/24 03:42:02;;;;;;;2.50;2.30;;;;;;;17.82;54.44;98982.47;5072004;28;20492;-68
2022/08/24 03:44:29;;;;;;;2.83;2.58;;;;;;;17.81;54.73;98990.75;5071692;28;20143;-68
2022/08/24 03:46:56;;;;;;;2.15;1.80;;;;;;;17.81;54.75;98985.41;5071259;28;20114;-68
2022/08/24 03:49:25;;;;;;;1.50;1.40;;;;;;;17.83;55.02;98984.09;5071686;28;20049;-68
2022/08/24 03:51:52;;;;;;;1.60;1.40;;;;;;;17.86;55.15;98987.38;5071654;28;20074;-68
2022/08/24 03:54:21;;;;;;;1.92;1.80;;;;;;;17.84;54.85;98992.97;5071694;28;20044;-68
2022/08/24 03:56:48;;;;;;;2.10;2.00;;;;;;;17.86;55.01;98992.72;5071326;28;20064;-68
2022/08/24 03:59:15;;;;;;;2.22;2.03;;;;;;;17.81;54.90;98986.22;5071654;28;20052;-68
2022/08/24 04:01:47;;;;;;;2.50;2.30;;;;;;;17.77;54.64;98987.72;5458050;22;20515;-67
2022/08/24 04:04:14;;;;;;;2.95;2.70;;;;;;;17.75;54.59;98991.66;5049568;28;20037;-67
2022/08/24 04:06:45;;;;;;;3.40;3.10;;;;;;;17.67;54.96;98992.00;5035161;28;20045;-67
2022/08/24 04:09:12;;;;;;;4.25;3.70;;;;;;;17.61;54.73;99007.13;5031629;28;20045;-67
2022/08/24 04:11:42;;;;;;;3.92;3.63;;;;;;;17.56;54.92;98999.00;5036658;28;20103;-67
2022/08/24 04:14:10;;;;;;;4.03;3.72;;;;;;;17.53;55.01;98999.44;5052310;28;20140;-67
2022/08/24 04:16:56;;;;;;;3.75;3.42;;;;;;;17.48;55.30;99000.16;5051699;28;20055;-67
2022/08/24 04:19:29;;;;;;;4.03;3.63;;;;;;;17.44;55.35;98992.84;5051667;28;20508;-68
2022/08/24 04:21:57;;;;;;;3.90;3.60;;;;;;;17.44;55.51;99003.53;5051820;28;20657;-67
2022/08/24 04:24:25;;;;;;;4.00;3.63;;;;;;;17.42;55.56;99009.09;5051237;28;20139;-67
2022/08/24 04:26:52;;;;;;;6.13;4.55;;;;;;;17.41;55.89;99014.66;5034671;28;20072;-67
2022/08/24 04:29:19;;;;;;;3.90;3.33;;;;;;;17.43;55.56;99015.25;5051240;28;20053;-67
2022/08/24 04:31:52;;;;;;;3.65;2.83;;;;;;;17.42;56.20;99014.44;5050987;28;20045;-67
2022/08/24 04:34:20;;;;;;;2.60;2.40;;;;;;;17.44;56.23;99022.22;5051120;28;20072;-67
2022/08/24 04:36:46;;;;;;;2.05;1.90;;;;;;;17.41;55.84;99017.34;5034358;28;20044;-68
2022/08/24 04:39:14;;;;;;;1.77;1.67;;;;;;;17.40;56.00;99021.88;5052296;28;20041;-67
2022/08/24 04:42:10;;;;;;;1.90;1.80;;;;;;;17.40;56.32;99021.88;5040751;28;20060;-67
2022/08/24 04:44:39;;;;;;;1.70;1.60;;;;;;;17.44;56.54;99020.38;5051873;28;20055;-67
2022/08/24 04:47:07;;;;;;;1.83;1.60;;;;;;;17.48;56.37;99018.88;5050638;28;20084;-67
2022/08/24 04:49:37;;;;;;;2.05;1.90;;;;;;;17.53;56.57;99013.63;5051108;28;20037;-67
2022/08/24 04:52:05;;;;;;;2.78;2.58;;;;;;;17.59;55.94;99019.88;5050801;28;20048;-68
2022/08/24 04:54:32;;;;;;;2.50;2.30;;;;;;;17.64;56.16;99019.22;5050807;28;20040;-68
2022/08/24 04:57:05;;;;;;;3.40;3.10;;;;;;;17.69;55.95;99025.47;5050740;28;20076;-68
2022/08/24 04:59:32;;;;;;;3.72;3.40;;;;;;;17.74;55.95;99019.44;5051283;28;20053;-68
2022/08/24 05:02:00;;;;;;;4.85;4.10;;;;;;;17.78;55.41;99025.97;5052320;28;20041;-68
2022/08/24 05:04:27;;;;;;;4.32;3.97;;;;;;;17.79;55.19;99032.94;5051953;28;20512;-68
2022/08/24 05:06:56;;;;;;;4.50;4.10;;;;;;;17.78;55.49;99032.13;5035968;28;20078;-68
2022/08/24 05:09:23;;;;;;;8.55;4.20;;;;;;;17.79;55.88;99028.41;5053063;28;20045;-67
2022/08/24 05:11:51;;;;;;;4.10;3.70;;;;;;;17.80;55.67;99034.59;5053598;28;20059;-67
2022/08/24 05:14:21;;;;;;;3.50;3.20;;;;;;;17.82;55.73;99040.50;5053895;28;20052;-67
2022/08/24 05:16:53;;;;;;;4.07;3.33;;;;;;;17.83;55.28;99034.09;5057638;28;20049;-66
2022/08/24 05:19:22;;;;;;;3.00;2.80;;;;;;;17.82;55.88;99033.28;5058634;28;20053;-68
2022/08/24 05:21:48;;;;;;;3.38;3.05;;;;;;;17.87;55.67;99040.59;5058100;28;20045;-68
2022/08/24 05:24:15;;;;;;;3.70;3.33;;;;;;;17.90;55.66;99044.69;5058446;28;20051;-69
2022/08/24 05:26:42;;;;;;;4.35;3.10;;;;;;;17.89;55.34;99041.19;5055273;28;20041;-67
2022/08/24 05:29:09;;;;;;;5.80;3.40;;;;;;;17.93;55.03;99041.53;5056178;28;20062;-68
2022/08/24 05:31:43;;;;;;;3.90;3.60;;;;;;;17.98;55.38;99044.31;5055987;28;20045;-68
2022/08/24 05:34:12;;;;;;;4.25;3.20;;;;;;;18.02;55.10;99040.94;5048145;28;20040;-68
2022/08/24 05:36:41;;;;;;;3.90;3.50;;;;;;;18.07;54.89;99054.41;5055558;28;20318;-68
2022/08/24 05:39:14;;;;;;;5.47;3.35;;;;;;;18.12;54.68;99039.53;5055792;28;20045;-68
2022/08/24 05:41:46;;;;;;;3.03;2.80;;;;;;;18.21;54.87;99052.31;5039890;28;20389;-67
2022/08/24 05:44:23;;;;;;;3.58;3.28;;;;;;;18.25;54.16;99053.47;5054835;28;20048;-67
2022/08/24 05:46:57;;;;;;;3.50;3.17;;;;;;;18.28;54.19;99055.66;5054527;28;20048;-67
2022/08/24 05:49:24;;;;;;;3.28;2.97;;;;;;;18.34;54.42;99056.59;5054326;28;20049;-68
2022/08/24 05:51:51;;;;;;;4.30;3.30;;;;;;;18.42;53.79;99058.09;5054259;28;20099;-68
2022/08/24 05:54:18;;;;;;;2.92;2.72;;;;;;;18.50;53.81;99058.53;5054500;28;20047;-68
2022/08/24 05:56:54;;;;;;;4.75;3.00;;;;;;;18.58;53.68;99060.00;5054069;28;20381;-68
2022/08/24 05:59:22;;;;;;;3.20;2.83;;;;;;;18.60;53.92;99057.91;5054222;28;20136;-68
2022/08/24 06:01:49;;;;;;;3.22;2.83;;;;;;;18.65;53.68;99057.19;5054051;28;20113;-68
2022/08/24 06:04:17;;;;;;;3.05;2.75;;;;;;;18.72;53.48;99061.38;5053879;28;20029;-68
2022/08/24 06:06:43;;;;;;;3.65;2.90;;;;;;;18.84;53.49;99071.22;5055002;28;20063;-68
2022/08/24 06:09:14;;;;;;;3.05;2.80;;;;;;;18.96;53.07;99072.81;5054251;28;20045;-68
2022/08/24 06:11:43;;;;;;;2.50;2.30;;;;;;;19.10;52.50;99065.25;5054133;28;20037;-67
2022/08/24 06:14:14;;;;;;;2.17;1.98;;;;;;;19.23;52.25;99064.97;5053884;28;20051;-68
2022/08/24 06:17:09;;;;;;;2.83;2.63;;;;;;;19.36;51.53;99074.56;5045146;28;20106;-68
2022/08/24 06:19:36;;;;;;;3.00;2.72;;;;;;;19.42;51.69;99059.38;5053575;28;20052;-67
2022/08/24 06:22:03;;;;;;;3.00;2.80;;;;;;;19.47;51.12;99065.63;5053563;28;20119;-68
2022/08/24 06:27:21;;;;;;;5.65;3.95;;;;;;;19.57;50.81;99070.34;5052552;28;20052;-68
2022/08/24 06:29:57;;;;;;;3.83;3.30;;;;;;;19.62;51.24;99069.63;5053694;28;20083;-68
2022/08/24 06:32:43;;;;;;;3.35;3.08;;;;;;;19.67;50.80;99073.19;5039191;28;20059;-68
2022/08/24 06:35:18;;;;;;;3.20;2.90;;;;;;;19.74;50.77;99067.66;5046015;28;20044;-68
2022/08/24 06:37:44;;;;;;;5.93;4.97;;;;;;;19.82;50.40;99061.88;5053307;28;20045;-69
2022/08/24 06:40:11;;;;;;;5.10;4.60;;;;;;;19.88;50.44;99066.28;5053749;28;20141;-69
2022/08/24 06:42:38;;;;;;;3.50;3.20;;;;;;;19.98;50.09;99062.91;5053211;28;20084;-67
2022/08/24 06:45:16;;;;;;;3.92;3.47;;;;;;;20.12;49.86;99072.22;5053249;28;20045;-67
2022/08/24 06:47:43;;;;;;;3.28;2.95;;;;;;;20.24;49.46;99059.50;5052818;28;20131;-67
2022/08/24 06:50:11;;;;;;;2.85;2.65;;;;;;;20.37;49.46;99070.94;5052961;28;20041;-67
2022/08/24 06:52:38;;;;;;;2.47;2.28;;;;;;;20.49;49.16;99072.47;5054489;28;20041;-68
2022/08/24 06:55:06;;;;;;;1.67;1.58;;;;;;;20.62;49.28;99076.66;5054364;28;20033;-67
2022/08/24 06:57:32;;;;;;;1.65;1.55;;;;;;;20.74;49.00;99074.63;5052698;28;20053;-67
2022/08/24 06:59:59;;;;;;;1.50;1.40;;;;;;;20.86;48.23;99074.50;5036321;28;20041;-67
2022/08/24 07:02:25;;;;;;;1.25;1.15;;;;;;;20.89;48.35;99065.09;5052550;28;20091;-67
2022/08/24 07:04:52;;;;;;;1.20;1.10;;;;;;;20.96;48.25;99071.91;5052331;28;20037;-67
2022/08/24 07:07:37;;;;;;;1.52;1.42;;;;;;;21.09;47.83;99069.88;5053859;28;20051;-68
2022/08/24 07:10:07;;;;;;;2.05;1.70;;;;;;;21.19;47.96;99070.78;5052515;28;20500;-68
2022/08/24 07:12:35;;;;;;;2.40;1.90;;;;;;;21.31;47.50;99067.09;5052479;28;20075;-68
2022/08/24 07:15:03;;;;;;;5.05;2.83;;;;;;;21.33;46.83;99071.19;5052441;28;20200;-68
2022/08/24 07:17:37;;;;;;;3.97;2.67;;;;;;;21.36;46.91;99065.31;5052248;28;20519;-67
2022/08/24 07:20:05;;;;;;;2.97;2.67;;;;;;;21.43;46.83;99070.44;5052252;28;20049;-68
2022/08/24 07:23:04;;;;;;;2.17;2.03;;;;;;;21.54;46.78;99077.53;5052313;28;20053;-67
2022/08/24 07:25:32;;;;;;;1.83;1.50;;;;;;;21.63;46.71;99078.69;5052174;28;20045;-68
2022/08/24 07:28:00;;;;;;;1.67;1.50;;;;;;;21.76;46.46;99074.75;5052260;28;20132;-68
2022/08/24 07:30:32;;;;;;;4.32;2.22;;;;;;;21.92;46.06;99072.94;5052181;28;20098;-67
2022/08/24 07:32:59;;;;;;;3.80;2.95;;;;;;;22.04;45.53;99078.13;5051913;28;20078;-68
2022/08/24 07:35:29;;;;;;;3.22;2.92;;;;;;;22.15;45.50;99082.53;5051994;28;20111;-67
2022/08/24 07:37:56;;;;;;;3.38;2.50;;;;;;;22.24;45.40;99081.78;5051117;28;20045;-67
2022/08/24 07:40:24;;;;;;;3.13;2.63;;;;;;;22.37;45.41;99080.50;5051740;28;20570;-68
2022/08/24 07:42:52;;;;;;;3.47;3.03;;;;;;;22.53;45.10;99080.56;5053188;28;20519;-67
2022/08/24 07:45:21;;;;;;;3.03;2.50;;;;;;;22.66;45.00;99077.38;5052053;28;20049;-68
2022/08/24 07:47:50;;;;;;;3.03;2.45;;;;;;;22.82;45.00;99089.00;5051655;28;20046;-68
2022/08/24 07:50:39;;;;;;;3.10;2.85;;;;;;;22.94;44.31;99078.81;5038467;28;20373;-68
2022/08/24 07:53:05;;;;;;;2.90;2.60;;;;;;;22.98;44.22;99085.28;5035418;28;20114;-67
2022/08/24 07:55:38;;;;;;;2.75;2.35;;;;;;;23.02;44.12;99080.16;5051914;28;20052;-69
2022/08/24 07:58:11;;;;;;;2.90;2.70;;;;;;;23.09;43.90;99081.53;5051826;28;20701;-68
2022/08/24 08:00:38;;;;;;;3.53;3.22;;;;;;;23.15;43.67;99079.69;5051706;28;20136;-68
2022/08/24 08:03:06;;;;;;;3.50;3.20;;;;;;;23.24;43.55;99083.44;5051113;28;20127;-68
2022/08/24 08:05:37;;;;;;;2.63;2.28;;;;;;;23.35;43.38;99082.38;5051280;28;20049;-68
2022/08/24 08:08:04;;;;;;;2.60;2.15;;;;;;;23.48;43.19;99087.25;5052525;28;20047;-69
2022/08/24 08:10:34;;;;;;;3.45;2.40;;;;;;;23.62;43.00;99086.69;5051381;28;20140;-68
2022/08/24 08:13:04;;;;;;;3.00;2.28;;;;;;;23.76;42.81;99090.50;5051310;28;20099;-68
2022/08/24 08:15:31;;;;;;;2.00;1.80;;;;;;;23.89;42.57;99087.22;5051436;28;20045;-68
2022/08/24 08:18:03;;;;;;;1.80;1.60;;;;;;;24.03;42.47;99079.34;5050972;28;20049;-69
2022/08/24 08:20:32;;;;;;;2.78;1.73;;;;;;;24.19;42.01;99082.81;5051244;28;20313;-68
2022/08/24 08:25:48;;;;;;;3.63;2.92;;;;;;;24.52;41.68;99094.91;5052539;28;20419;-67
2022/08/24 08:28:21;;;;;;;3.10;2.80;;;;;;;24.68;41.27;99082.94;5050903;28;20519;-68
2022/08/24 08:30:52;;;;;;;2.95;2.65;;;;;;;24.81;40.49;99097.72;5051327;28;20132;-68
2022/08/24 08:33:19;;;;;;;3.10;2.60;;;;;;;24.91;40.54;99089.56;5050998;28;20488;-68
2022/08/24 08:35:47;;;;;;;2.63;2.42;;;;;;;25.03;40.59;99083.03;5050891;28;20064;-68
2022/08/24 08:38:14;;;;;;;2.60;2.40;;;;;;;25.17;40.28;99081.31;5034299;28;20044;-68
2022/08/24 08:41:17;;;;;;;2.72;2.40;;;;;;;25.28;39.86;99074.75;5051077;28;20132;-68
2022/08/24 08:44:04;;;;;;;2.03;1.83;;;;;;;25.44;39.74;99076.25;5051134;28;20049;-68
2022/08/24 08:46:52;;;;;;;2.40;2.03;;;;;;;25.57;39.52;99069.34;5050938;28;20140;-68
2022/08/24 08:49:51;;;;;;;2.78;2.28;;;;;;;25.70;38.86;99070.59;5035446;28;20175;-68
2022/08/24 08:52:51;;;;;;;2.25;2.05;;;;;;;25.82;38.76;99064.81;5051035;28;20045;-68
2022/08/24 08:55:33;;;;;;;2.28;2.08;;;;;;;25.95;38.80;99064.13;5039723;28;20044;-68
2022/08/24 08:58:15;;;;;;;2.17;1.80;;;;;;;26.11;38.29;99059.38;5036180;28;20049;-68
2022/08/24 09:01:10;;;;;;;2.90;2.03;;;;;;;26.25;37.96;99063.00;5051244;28;20044;-68
2022/08/24 09:04:15;;;;;;;1.92;1.70;;;;;;;26.43;37.94;99064.94;5050884;28;20432;-69
2022/08/24 09:07:12;;;;;;;3.30;1.92;;;;;;;26.58;37.09;99057.75;5005206;28;20049;-69
2022/08/24 09:09:59;;;;;;;1.98;1.70;;;;;;;26.78;37.05;99057.47;5051328;28;20148;-69
2022/08/24 09:13:02;;;;;;;2.13;1.73;;;;;;;26.98;36.91;99053.63;5052413;28;20065;-69
2022/08/24 09:15:43;;;;;;;2.22;1.90;;;;;;;27.12;36.20;99056.44;5052620;28;20045;-68
2022/08/24 09:18:28;;;;;;;3.05;2.00;;;;;;;27.22;35.50;99056.28;5034405;28;20041;-68
2022/08/24 09:21:04;;;;;;;1.73;1.63;;;;;;;27.34;35.33;99058.53;5035356;28;20487;-69
2022/08/24 09:23:43;;;;;;;1.60;1.50;;;;;;;27.48;35.12;99050.44;5051580;28;20072;-68
2022/08/24 09:26:26;;;;;;;1.73;1.60;;;;;;;27.59;34.99;99058.09;5033956;28;20045;-68
2022/08/24 09:29:02;;;;;;;2.65;1.85;;;;;;;27.67;34.71;99046.53;5050661;28;20098;-69
2022/08/24 09:31:52;;;;;;;1.73;1.60;;;;;;;27.78;34.19;99049.91;5051590;28;20048;-68
2022/08/24 09:34:30;;;;;;;2.15;1.90;;;;;;;27.90;34.17;99046.72;5043581;28;20041;-68
2022/08/24 09:36:57;;;;;;;1.83;1.73;;;;;;;28.04;34.22;99050.22;5051474;28;20051;-69
2022/08/24 09:39:35;;;;;;;1.90;1.67;;;;;;;28.13;33.37;99044.91;5050359;28;20125;-69
2022/08/24 09:42:40;;;;;;;1.40;1.30;;;;;;;28.25;33.42;99036.22;5050479;28;20064;-68
2022/08/24 09:45:36;;;;;;;2.05;1.50;;;;;;;28.41;33.21;99036.75;5051612;28;20045;-68
2022/08/24 09:48:35;;;;;;;1.92;1.45;;;;;;;28.50;32.49;99034.94;5051231;28;20048;-68
2022/08/24 09:51:35;;;;;;;1.42;1.20;;;;;;;28.61;32.59;99039.84;5050444;28;20401;-69
2022/08/24 09:54:29;;;;;;;1.80;1.70;;;;;;;28.75;32.26;99031.66;5050552;28;20041;-68
2022/08/24 09:57:18;;;;;;;1.50;1.30;;;;;;;28.86;31.69;99030.31;5051186;28;20048;-68
2022/08/24 10:00:12;;;;;;;1.38;1.27;;;;;;;28.98;31.43;99023.53;5051864;28;20045;-71
2022/08/24 10:03:07;;;;;;;2.75;1.40;;;;;;;29.10;31.43;99024.59;5053571;28;20382;-69
2022/08/24 10:05:59;;;;;;;1.40;1.30;;;;;;;29.28;30.98;99025.53;5032494;28;20051;-69
2022/08/24 10:08:44;;;;;;;1.60;1.50;;;;;;;29.39;30.27;99020.59;5054926;28;20444;-69
2022/08/24 10:11:49;;;;;;;3.78;2.15;;;;;;;29.47;29.44;99019.06;5057540;28;20041;-69
2022/08/24 10:14:38;;;;;;;1.60;1.50;;;;;;;29.50;29.42;99015.72;5059854;22;20029;-66
2022/08/24 10:17:04;;;;;;;1.42;1.27;;;;;;;29.60;28.86;99013.56;5015108;28;20061;-66
2022/08/24 10:19:52;;;;;;;1.30;1.10;;;;;;;29.79;28.99;99012.50;5004439;28;20086;-66
2022/08/24 10:22:27;;;;;;;1.92;1.30;;;;;;;29.94;28.43;99009.38;4991828;28;20057;-66
2022/08/24 10:25:05;;;;;;;1.48;1.38;;;;;;;30.04;28.75;99003.63;4976862;28;20054;-65
2022/08/24 10:27:45;;;;;;;2.28;1.55;;;;;;;30.15;28.32;99008.78;4975298;28;20057;-65
2022/08/24 10:30:45;;;;;;;1.60;1.50;;;;;;;30.25;28.00;99003.88;4975933;28;20050;-65
2022/08/24 10:33:31;;;;;;;1.70;1.60;;;;;;;30.38;27.90;99004.06;4970918;28;20137;-65
2022/08/24 10:36:06;;;;;;;1.40;1.30;;;;;;;30.46;27.85;99000.56;4996269;28;20043;-65
2022/08/24 10:41:44;;;;;;;1.20;1.10;;;;;;;30.63;27.71;98992.38;5010751;28;20108;-65
2022/08/24 10:44:36;;;;;;;1.90;1.40;;;;;;;30.66;26.12;98989.00;5010377;28;20121;-65
2022/08/24 10:47:27;;;;;;;1.90;1.70;;;;;;;30.72;27.32;98984.97;4995249;28;20056;-65
2022/08/24 10:50:24;;;;;;;2.97;1.88;;;;;;;30.85;27.12;98988.69;4994387;28;20080;-65
2022/08/24 10:53:04;;;;;;;2.83;1.52;;;;;;;30.90;27.04;98985.78;4995421;28;20070;-64
2022/08/24 10:55:33;;;;;;;1.90;1.80;;;;;;;30.86;27.37;98984.03;5010126;28;20045;-65
2022/08/24 10:58:17;;;;;;;1.88;1.77;;;;;;;30.88;27.11;98979.88;5009743;28;20121;-64
2022/08/24 11:00:44;;;;;;;1.92;1.50;;;;;;;30.95;26.12;98979.38;5010227;28;20062;-65
2022/08/24 11:03:15;;;;;;;2.10;1.83;;;;;;;31.05;26.20;98979.03;4977574;28;20534;-65
2022/08/24 11:05:47;;;;;;;1.85;1.75;;;;;;;31.18;25.44;98986.25;4998800;28;20108;-65
2022/08/24 11:08:32;;;;;;;2.20;2.00;;;;;;;31.27;25.23;98983.47;5001900;28;20078;-66
2022/08/24 11:11:09;;;;;;;1.48;1.38;;;;;;;31.38;25.24;98978.50;5003907;28;20046;-66
2022/08/24 11:13:57;;;;;;;2.63;1.40;;;;;;;31.47;24.09;98976.56;5003229;28;20054;-66
2022/08/24 11:16:29;;;;;;;1.50;1.40;;;;;;;31.54;24.44;98969.47;5003013;28;20034;-66
2022/08/24 11:18:58;;;;;;;1.65;1.50;;;;;;;31.60;24.28;98975.56;5003157;28;20050;-66
2022/08/24 11:21:42;;;;;;;1.95;1.60;;;;;;;31.67;23.80;98964.91;5000796;28;20046;-65
2022/08/24 11:24:44;;;;;;;8.85;1.90;;;;;;;31.67;23.39;98969.56;4994694;28;20050;-65
2022/08/24 11:27:29;;;;;;;1.60;1.50;;;;;;;31.70;23.44;98966.19;4993329;28;20157;-65
2022/08/24 11:30:08;;;;;;;2.25;1.50;;;;;;;31.73;24.13;98960.06;5009534;28;20429;-65
2022/08/24 11:32:43;;;;;;;1.67;1.50;;;;;;;31.79;23.94;98962.28;4993213;28;20125;-65
2022/08/24 11:35:31;;;;;;;1.30;1.15;;;;;;;31.90;23.59;98951.81;4986408;28;20057;-65
2022/08/24 11:38:07;;;;;;;1.60;1.45;;;;;;;31.96;23.17;98971.53;5009292;28;20042;-66
2022/08/24 11:40:39;;;;;;;1.60;1.50;;;;;;;31.98;23.50;98956.41;4993096;28;20410;-65
2022/08/24 11:43:09;;;;;;;;;;;;;;;32.01;23.39;98961.25;5009767;28;20053;-65
2022/08/24 11:45:40;;;;;;;1.60;1.50;;;;;;;32.06;23.19;98957.50;5010646;28;19921;-66
2022/08/24 11:48:22;;;;;;;1.50;1.40;;;;;;;32.08;23.26;98957.16;5011801;28;20046;-65
2022/08/24 11:51:09;;;;;;;3.13;1.95;;;;;;;32.24;23.31;98956.25;4995598;28;20073;-65
2022/08/24 11:53:46;;;;;;;2.08;1.55;;;;;;;32.29;23.38;98955.25;4994203;28;20077;-65
2022/08/24 11:56:33;;;;;;;1.60;1.50;;;;;;;32.21;22.53;98956.09;5009359;28;20077;-64
2022/08/24 11:59:23;;;;;;;2.15;1.95;;;;;;;32.16;22.13;98956.31;5009000;28;20046;-65
2022/08/24 12:01:59;;;;;;;1.70;1.55;;;;;;;32.12;22.88;98953.44;4987866;28;20057;-65
2022/08/24 12:04:45;;;;;;;1.77;1.67;;;;;;;32.23;22.30;98953.84;4992544;28;20076;-65
2022/08/24 12:07:50;;;;;;;2.15;1.77;;;;;;;32.36;22.68;98965.66;4989557;28;20078;-66
2022/08/24 12:10:21;;;;;;;1.88;1.60;;;;;;;32.45;21.52;98955.47;4978456;28;20054;-67
2022/08/24 12:13:05;;;;;;;3.58;1.70;;;;;;;32.49;22.46;98957.22;4972898;28;20062;-65
2022/08/24 12:15:38;;;;;;;1.73;1.63;;;;;;;32.55;22.11;98955.09;4989351;28;20045;-66